Time;durP1;ratioP1;P1;durP2;ratioP2;P2;SDS_P1;SDS_P2;PMS_P1;PMS_P2;Temp;Humidity;BMP_temperature;BMP_pressure;BME280_temperature;BME280_humidity;BME280_pressure;Samples;Min_cycle;Max_cycle;Signal;HPM_P1;HPM_P2
2022/08/17 00:00:33;;;;;;;3.33;2.72;;;23.40;99.90;;;;;;5043498;28;20223;-77
2022/08/17 00:03:04;;;;;;;2.38;2.17;;;23.40;99.90;;;;;;5042143;28;20203;-76
2022/08/17 00:05:36;;;;;;;2.47;2.28;;;23.30;99.90;;;;;;5041626;28;20214;-76
2022/08/17 00:08:04;;;;;;;2.35;2.15;;;23.30;99.90;;;;;;5042523;28;20249;-77
2022/08/17 00:10:32;;;;;;;2.30;2.15;;;23.30;99.90;;;;;;5045787;28;20231;-76
2022/08/17 00:12:59;;;;;;;2.42;2.22;;;23.30;99.90;;;;;;5047058;28;20199;-76
2022/08/17 00:15:27;;;;;;;3.97;2.63;;;23.30;99.90;;;;;;5045396;28;20219;-78
2022/08/17 00:17:54;;;;;;;3.00;2.25;;;23.30;99.90;;;;;;5048721;28;20199;-77
2022/08/17 00:20:21;;;;;;;2.90;2.70;;;23.20;99.90;;;;;;5044331;28;20248;-77
2022/08/17 00:22:48;;;;;;;2.78;2.55;;;23.10;99.90;;;;;;5047124;28;20207;-76
2022/08/17 00:25:18;;;;;;;2.30;2.20;;;23.10;99.90;;;;;;5047167;28;20230;-80
2022/08/17 00:27:47;;;;;;;2.70;2.50;;;23.10;99.90;;;;;;5045613;28;20649;-78
2022/08/17 00:30:14;;;;;;;2.80;2.60;;;23.00;99.90;;;;;;5040943;28;20222;-75
2022/08/17 00:32:44;;;;;;;2.90;2.70;;;22.80;99.90;;;;;;5050763;28;20692;-77
2022/08/17 00:35:16;;;;;;;3.20;2.90;;;22.70;99.90;;;;;;5044660;28;20223;-78
2022/08/17 00:37:48;;;;;;;4.80;2.60;;;22.60;99.90;;;;;;5044113;28;20205;-75
2022/08/17 00:40:16;;;;;;;2.38;2.28;;;22.60;99.90;;;;;;5046340;28;20599;-77
2022/08/17 00:42:44;;;;;;;2.90;2.70;;;22.50;99.90;;;;;;5048414;28;20723;-75
2022/08/17 00:45:16;;;;;;;3.15;2.90;;;22.50;99.90;;;;;;5047885;28;20280;-76
2022/08/17 00:47:43;;;;;;;3.13;2.92;;;22.50;99.90;;;;;;5051783;28;20235;-76
2022/08/17 00:50:14;;;;;;;2.80;2.60;;;22.40;99.90;;;;;;5046150;28;20232;-76
2022/08/17 00:52:48;;;;;;;2.88;2.67;;;22.40;99.90;;;;;;5044478;28;20195;-76
2022/08/17 00:55:15;;;;;;;2.90;2.70;;;22.40;99.90;;;;;;5046511;28;20219;-80
2022/08/17 00:57:46;;;;;;;2.88;2.67;;;22.50;99.90;;;;;;5047019;28;20198;-76
2022/08/17 01:00:20;;;;;;;3.03;2.72;;;22.40;99.90;;;;;;5042926;28;20791;-76
2022/08/17 01:02:48;;;;;;;2.83;2.63;;;22.30;99.90;;;;;;5042893;28;20199;-77
2022/08/17 01:05:18;;;;;;;3.30;3.10;;;22.30;99.90;;;;;;5048877;28;20230;-78
2022/08/17 01:07:47;;;;;;;2.72;2.53;;;22.30;99.90;;;;;;5041885;28;20207;-77
2022/08/17 01:10:15;;;;;;;2.25;2.15;;;22.30;99.90;;;;;;5043329;28;20226;-78
2022/08/17 01:12:43;;;;;;;2.90;2.70;;;22.30;99.90;;;;;;5044770;28;20253;-75
2022/08/17 01:15:10;;;;;;;2.88;2.67;;;22.40;99.90;;;;;;5042132;28;20262;-77
2022/08/17 01:17:39;;;;;;;3.00;2.78;;;22.30;99.90;;;;;;5040576;28;20195;-77
2022/08/17 01:20:07;;;;;;;2.90;2.70;;;22.30;99.90;;;;;;5040836;28;20761;-76
2022/08/17 01:22:36;;;;;;;2.83;2.63;;;22.20;99.90;;;;;;5046210;28;20412;-76
2022/08/17 01:25:07;;;;;;;2.63;2.50;;;22.20;99.90;;;;;;5043467;28;20226;-76
2022/08/17 01:27:36;;;;;;;2.80;2.60;;;22.30;99.90;;;;;;5045205;28;20218;-76
2022/08/17 01:30:11;;;;;;;2.97;2.75;;;22.20;99.90;;;;;;5042303;28;20221;-76
2022/08/17 01:32:38;;;;;;;2.78;2.58;;;22.20;99.90;;;;;;5045948;28;20195;-77
2022/08/17 01:35:07;;;;;;;2.78;2.53;;;22.20;99.90;;;;;;5045916;28;20231;-77
2022/08/17 01:37:40;;;;;;;2.80;2.60;;;22.20;99.90;;;;;;5042870;28;20261;-76
2022/08/17 01:40:13;;;;;;;2.50;2.30;;;22.10;99.90;;;;;;5047039;28;20223;-77
2022/08/17 01:42:44;;;;;;;2.80;2.60;;;22.10;99.90;;;;;;5047558;28;20268;-77
2022/08/17 01:45:15;;;;;;;2.88;2.67;;;22.10;99.90;;;;;;5044756;28;20292;-76
2022/08/17 01:47:43;;;;;;;2.63;2.50;;;22.10;99.90;;;;;;5043004;28;20922;-78
2022/08/17 01:50:14;;;;;;;3.13;2.92;;;22.10;99.90;;;;;;5044236;28;20230;-78
2022/08/17 01:52:44;;;;;;;2.95;2.75;;;22.00;99.90;;;;;;5048986;28;20245;-76
2022/08/17 01:55:12;;;;;;;2.50;2.30;;;22.00;99.90;;;;;;5046416;28;20224;-76
2022/08/17 01:57:39;;;;;;;3.13;2.92;;;21.90;99.90;;;;;;5047868;28;20191;-77
2022/08/17 02:00:09;;;;;;;3.15;2.55;;;21.80;99.90;;;;;;5044647;28;20216;-76
2022/08/17 02:02:36;;;;;;;2.63;2.42;;;21.80;99.90;;;;;;5042748;28;20286;-76
2022/08/17 02:05:04;;;;;;;2.80;2.60;;;21.80;99.90;;;;;;5042741;28;20230;-76
2022/08/17 02:07:31;;;;;;;3.22;2.65;;;21.90;99.90;;;;;;5045527;28;20226;-76
2022/08/17 02:10:00;;;;;;;3.03;2.83;;;21.90;99.90;;;;;;5043803;28;20221;-77
2022/08/17 02:12:27;;;;;;;2.58;2.40;;;21.90;99.90;;;;;;5046739;28;20194;-77
2022/08/17 02:14:54;;;;;;;3.00;2.80;;;21.90;99.90;;;;;;5046265;28;20281;-77
2022/08/17 02:17:21;;;;;;;2.92;2.72;;;21.90;99.90;;;;;;5045756;28;20191;-76
2022/08/17 02:19:48;;;;;;;3.08;2.78;;;21.80;99.90;;;;;;5044104;28;20538;-77
2022/08/17 02:22:17;;;;;;;4.15;3.75;;;21.70;99.90;;;;;;5045148;28;20202;-79
2022/08/17 02:24:45;;;;;;;4.50;3.58;;;21.60;99.90;;;;;;5047376;28;20222;-75
2022/08/17 02:27:13;;;;;;;2.85;2.65;;;21.50;99.90;;;;;;5044033;28;20779;-77
2022/08/17 02:29:41;;;;;;;3.05;2.78;;;21.60;99.90;;;;;;5047819;28;20218;-77
2022/08/17 02:32:16;;;;;;;3.35;3.15;;;21.60;99.90;;;;;;5044965;28;20542;-75
2022/08/17 02:34:43;;;;;;;2.95;2.75;;;21.70;99.90;;;;;;5043716;28;20229;-77
2022/08/17 02:37:10;;;;;;;3.38;2.80;;;21.70;99.90;;;;;;5044060;28;20659;-77
2022/08/17 02:39:38;;;;;;;3.15;2.85;;;21.80;99.90;;;;;;5041877;28;20231;-76
2022/08/17 02:42:06;;;;;;;3.10;2.88;;;21.70;99.90;;;;;;5041701;28;20398;-78
2022/08/17 02:44:34;;;;;;;3.15;2.92;;;21.80;99.90;;;;;;5043538;28;20227;-76
2022/08/17 02:47:01;;;;;;;2.83;2.63;;;21.70;99.90;;;;;;5043623;28;20594;-76
2022/08/17 02:49:28;;;;;;;2.92;2.72;;;21.70;99.90;;;;;;5045972;28;20645;-77
2022/08/17 02:51:57;;;;;;;3.17;2.97;;;21.60;99.90;;;;;;5043654;28;20198;-76
2022/08/17 02:54:24;;;;;;;3.80;3.50;;;21.60;99.90;;;;;;5045241;28;20219;-76
2022/08/17 02:56:51;;;;;;;2.88;2.67;;;21.50;99.90;;;;;;5046351;28;20544;-77
2022/08/17 02:59:18;;;;;;;3.65;2.88;;;21.50;99.90;;;;;;5045227;28;20206;-76
2022/08/17 03:01:47;;;;;;;3.30;3.00;;;21.50;99.90;;;;;;5048158;28;20195;-76
2022/08/17 03:04:14;;;;;;;3.38;3.03;;;21.50;99.90;;;;;;5044905;28;20766;-76
2022/08/17 03:06:41;;;;;;;2.78;2.58;;;21.40;99.90;;;;;;5045830;28;20215;-77
2022/08/17 03:09:08;;;;;;;3.08;2.88;;;21.40;99.90;;;;;;5045289;28;20198;-77
2022/08/17 03:11:35;;;;;;;3.50;3.20;;;21.30;99.90;;;;;;5042454;28;20207;-77
2022/08/17 03:14:02;;;;;;;2.97;2.78;;;21.30;99.90;;;;;;5047101;28;20218;-76
2022/08/17 03:16:29;;;;;;;2.75;2.42;;;21.20;99.90;;;;;;5049137;28;20264;-77
2022/08/17 03:18:58;;;;;;;2.78;2.58;;;21.10;99.90;;;;;;5041758;28;20199;-77
2022/08/17 03:21:25;;;;;;;2.83;2.63;;;21.10;99.90;;;;;;5047730;28;20222;-77
2022/08/17 03:23:52;;;;;;;3.13;2.92;;;21.10;99.90;;;;;;5045464;28;20900;-78
2022/08/17 03:26:19;;;;;;;3.17;2.97;;;21.10;99.90;;;;;;5043351;28;20210;-77
2022/08/17 03:28:46;;;;;;;2.95;2.75;;;21.10;99.90;;;;;;5044019;28;20249;-77
2022/08/17 03:31:13;;;;;;;3.13;2.83;;;21.00;99.90;;;;;;5043452;28;20223;-76
2022/08/17 03:33:40;;;;;;;3.58;3.28;;;21.00;99.90;;;;;;5045644;28;20214;-76
2022/08/17 03:36:10;;;;;;;3.40;3.10;;;20.80;99.90;;;;;;5045521;28;20280;-76
2022/08/17 03:38:37;;;;;;;3.60;3.30;;;20.70;99.90;;;;;;5043775;28;20624;-76
2022/08/17 03:41:05;;;;;;;3.10;2.80;;;20.70;99.90;;;;;;5042576;28;20214;-76
2022/08/17 03:43:33;;;;;;;3.28;3.08;;;20.70;99.90;;;;;;5044515;28;20962;-76
2022/08/17 03:57:04;;;;;;;3.38;3.10;;;21.10;99.90;;;;;;5055007;28;20190;-77
2022/08/17 03:59:31;;;;;;;3.40;3.20;;;21.10;99.90;;;;;;5055728;28;20871;-77
2022/08/17 04:02:02;;;;;;;3.10;2.90;;;21.10;99.90;;;;;;5052164;28;20264;-76
2022/08/17 04:04:30;;;;;;;3.42;3.22;;;21.10;99.90;;;;;;5055426;28;20249;-77
2022/08/17 04:06:58;;;;;;;3.60;3.30;;;21.10;99.90;;;;;;5053868;28;20975;-76
2022/08/17 04:09:26;;;;;;;3.72;3.35;;;21.10;99.90;;;;;;5051575;28;20206;-76
2022/08/17 04:11:53;;;;;;;2.85;2.65;;;21.00;99.90;;;;;;5056032;28;20207;-77
2022/08/17 04:14:21;;;;;;;3.33;3.10;;;21.00;99.90;;;;;;5052543;28;20223;-75
2022/08/17 04:16:48;;;;;;;3.38;3.08;;;21.00;99.90;;;;;;5055899;28;20199;-76
2022/08/17 04:19:15;;;;;;;3.40;3.20;;;21.00;99.90;;;;;;5058256;28;20199;-79
2022/08/17 04:21:42;;;;;;;3.45;3.05;;;20.90;99.90;;;;;;5049497;28;20199;-78
2022/08/17 04:24:10;;;;;;;3.20;2.90;;;20.90;99.90;;;;;;5042686;28;20238;-77
2022/08/17 04:26:37;;;;;;;2.80;2.60;;;20.90;99.90;;;;;;5048832;28;20222;-77
2022/08/17 04:29:06;;;;;;;3.72;3.40;;;20.90;99.90;;;;;;5049138;28;20202;-77
2022/08/17 04:31:33;;;;;;;3.22;3.03;;;20.90;99.90;;;;;;5044110;28;20219;-76
2022/08/17 04:34:00;;;;;;;3.83;2.97;;;20.90;99.90;;;;;;5045912;28;20218;-77
2022/08/17 04:36:27;;;;;;;3.20;3.00;;;20.90;99.90;;;;;;5047497;28;20226;-77
2022/08/17 04:38:54;;;;;;;3.08;2.88;;;20.90;99.90;;;;;;5048730;28;20195;-76
2022/08/17 04:44:07;;;;;;;2.90;2.70;;;21.00;99.90;;;;;;5044506;28;20222;-76
2022/08/17 04:46:35;;;;;;;3.25;3.05;;;21.00;99.90;;;;;;5047823;28;20266;-77
2022/08/17 04:49:05;;;;;;;3.08;2.88;;;21.00;99.90;;;;;;5048148;28;20226;-76
2022/08/17 04:51:34;;;;;;;2.78;2.58;;;21.00;99.90;;;;;;5048128;28;20219;-77
2022/08/17 04:54:04;;;;;;;3.33;3.13;;;21.10;99.90;;;;;;5049445;28;20222;-77
2022/08/17 04:56:33;;;;;;;3.40;3.10;;;21.10;99.90;;;;;;5048771;28;20872;-76
2022/08/17 04:59:03;;;;;;;3.20;2.90;;;21.10;99.90;;;;;;5049699;28;20191;-78
2022/08/17 05:01:34;;;;;;;3.10;2.90;;;21.20;99.90;;;;;;5050100;28;20233;-76
2022/08/17 05:04:03;;;;;;;3.33;3.13;;;21.20;99.90;;;;;;5051401;28;20218;-75
2022/08/17 05:06:30;;;;;;;3.10;2.85;;;21.30;99.90;;;;;;5052215;28;20218;-76
2022/08/17 05:08:59;;;;;;;3.00;2.80;;;21.30;99.90;;;;;;5052069;28;20231;-76
2022/08/17 05:11:27;;;;;;;3.55;2.90;;;21.30;99.90;;;;;;5051927;28;20215;-77
2022/08/17 05:13:57;;;;;;;2.95;2.75;;;21.30;99.90;;;;;;5049365;28;20219;-76
2022/08/17 05:16:27;;;;;;;3.95;3.20;;;21.30;99.90;;;;;;5044729;28;20218;-76
2022/08/17 05:18:55;;;;;;;2.75;2.60;;;21.30;99.90;;;;;;5049873;28;20206;-76
2022/08/17 05:21:23;;;;;;;3.13;2.92;;;21.40;99.90;;;;;;5051496;28;20222;-76
2022/08/17 05:23:50;;;;;;;3.03;2.80;;;21.40;99.90;;;;;;5049294;28;20219;-76
2022/08/17 05:26:20;;;;;;;3.42;2.83;;;21.50;99.90;;;;;;5049832;28;20211;-76
2022/08/17 05:28:47;;;;;;;3.00;2.80;;;21.60;99.90;;;;;;5051073;28;20219;-75
2022/08/17 05:31:16;;;;;;;2.92;2.72;;;21.80;99.90;;;;;;5049864;28;20280;-76
2022/08/17 05:33:44;;;;;;;3.10;2.90;;;22.10;99.90;;;;;;5045393;28;20215;-75
2022/08/17 05:36:13;;;;;;;3.50;3.20;;;22.40;99.90;;;;;;5045800;28;20258;-76
2022/08/17 05:38:41;;;;;;;3.72;3.42;;;22.70;99.90;;;;;;5049164;28;20249;-76
2022/08/17 05:41:09;;;;;;;3.75;3.45;;;23.00;99.90;;;;;;5048506;28;20218;-77
2022/08/17 05:43:38;;;;;;;3.63;3.33;;;22.90;99.90;;;;;;5047130;28;20281;-77
2022/08/17 05:46:11;;;;;;;3.80;3.50;;;22.70;99.90;;;;;;5044068;28;20231;-76
2022/08/17 05:48:42;;;;;;;3.92;3.53;;;22.50;99.90;;;;;;5043866;28;20226;-74
2022/08/17 05:51:31;;;;;;;4.22;3.83;;;22.30;99.90;;;;;;5051478;28;20281;-79
2022/08/17 05:54:15;;;;;;;4.40;4.10;;;22.00;99.90;;;;;;5047861;28;20226;-78
2022/08/17 05:57:07;;;;;;;3.95;3.65;;;21.90;99.90;;;;;;5044012;28;20219;-76
2022/08/17 05:59:48;;;;;;;3.58;3.28;;;21.80;99.90;;;;;;5049390;28;20566;-76
2022/08/17 06:02:24;;;;;;;5.55;3.28;;;21.90;99.90;;;;;;5052378;28;20195;-73
2022/08/17 06:05:10;;;;;;;3.50;3.20;;;22.20;99.90;;;;;;5048546;28;20230;-79
2022/08/17 06:07:45;;;;;;;3.47;3.20;;;22.50;99.90;;;;;;5047436;28;20859;-77
2022/08/17 06:10:17;;;;;;;3.38;3.15;;;22.90;99.90;;;;;;5044537;28;20913;-77
2022/08/17 06:13:00;;;;;;;3.72;3.40;;;23.30;99.90;;;;;;5042725;28;20200;-78
2022/08/17 06:15:33;;;;;;;3.75;3.47;;;23.80;99.90;;;;;;5047183;28;20261;-77
2022/08/17 06:18:04;;;;;;;4.45;3.50;;;24.30;99.90;;;;;;5044414;28;20192;-77
2022/08/17 06:20:53;;;;;;;3.20;3.00;;;24.50;99.90;;;;;;5043219;28;20221;-79
2022/08/17 06:23:25;;;;;;;3.80;3.50;;;24.60;99.90;;;;;;5044020;28;20739;-78
2022/08/17 06:25:58;;;;;;;4.95;4.50;;;24.50;99.90;;;;;;5048156;28;21163;-78
2022/08/17 06:28:31;;;;;;;4.72;4.30;;;24.50;99.90;;;;;;5042193;28;20773;-81
2022/08/17 06:31:06;;;;;;;4.38;3.97;;;24.30;99.90;;;;;;5042045;28;20268;-77
2022/08/17 06:33:37;;;;;;;5.10;4.68;;;24.00;99.90;;;;;;5043265;28;20302;-78
2022/08/17 06:48:39;;;;;;;4.93;4.30;;;23.00;99.90;;;;;;5038514;28;21033;-78
2022/08/17 06:54:24;;;;;;;5.28;4.80;;;23.30;99.90;;;;;;5039569;28;20333;-76
2022/08/17 06:56:58;;;;;;;4.70;4.30;;;23.60;99.90;;;;;;5041490;28;20716;-77
2022/08/17 06:59:32;;;;;;;4.28;3.90;;;23.80;99.90;;;;;;5043031;28;20708;-76
2022/08/17 07:02:04;;;;;;;4.47;4.07;;;24.00;99.90;;;;;;5045879;28;20199;-79
2022/08/17 07:04:33;;;;;;;4.00;3.70;;;24.10;99.90;;;;;;5046345;28;20226;-78
2022/08/17 07:09:48;;;;;;;4.32;4.00;;;24.50;99.90;;;;;;5039462;28;20222;-77
2022/08/17 07:12:18;;;;;;;4.53;4.13;;;24.70;99.90;;;;;;5039111;28;20260;-79
2022/08/17 07:14:50;;;;;;;4.22;3.92;;;24.70;99.90;;;;;;5033233;28;20698;-79
2022/08/17 07:17:20;;;;;;;4.53;4.10;;;24.70;99.90;;;;;;5041372;28;20309;-81
2022/08/17 07:19:49;;;;;;;4.28;3.90;;;24.80;99.90;;;;;;5043162;28;20223;-78
2022/08/17 07:22:26;;;;;;;4.90;4.43;;;25.00;99.90;;;;;;5040236;28;20206;-78
2022/08/17 07:24:57;;;;;;;4.20;3.90;;;25.20;99.90;;;;;;5036376;28;20225;-78
2022/08/17 07:27:27;;;;;;;4.50;4.20;;;25.30;99.90;;;;;;5040852;28;20823;-78
2022/08/17 07:29:58;;;;;;;4.97;4.57;;;25.40;99.90;;;;;;5038059;28;20289;-78
2022/08/17 07:32:31;;;;;;;4.90;4.50;;;25.30;99.90;;;;;;5041446;28;20708;-78
2022/08/17 07:35:11;;;;;;;5.68;4.70;;;25.10;99.90;;;;;;5041743;28;20313;-78
2022/08/17 07:37:41;;;;;;;4.82;3.92;;;24.70;99.90;;;;;;5051748;28;20215;-83
2022/08/17 07:40:28;;;;;;;5.15;4.65;;;24.30;99.90;;;;;;5046148;28;20197;-78
2022/08/17 07:43:18;;;;;;;5.25;4.75;;;24.40;99.90;;;;;;5042206;28;20222;-77
2022/08/17 07:49:21;;;;;;;4.97;4.57;;;24.10;99.90;;;;;;5014072;28;20231;-78
2022/08/17 07:51:58;;;;;;;5.68;4.72;;;24.30;99.90;;;;;;5037769;28;20290;-78
2022/08/17 07:54:32;;;;;;;4.63;4.18;;;24.40;99.90;;;;;;5045203;28;20595;-78
2022/08/17 07:57:00;;;;;;;4.47;3.85;;;24.30;99.90;;;;;;5040059;28;20229;-79
2022/08/17 07:59:30;;;;;;;4.65;4.25;;;24.30;99.90;;;;;;5042256;28;20194;-78
2022/08/17 08:02:24;;;;;;;4.50;4.10;;;24.30;99.90;;;;;;5048296;28;20242;-78
2022/08/17 08:05:01;;;;;;;4.43;4.13;;;24.50;99.90;;;;;;5047674;28;20243;-79
2022/08/17 08:07:34;;;;;;;4.78;4.30;;;24.70;99.90;;;;;;5041383;28;20234;-78
2022/08/17 08:10:08;;;;;;;5.00;4.30;;;24.80;99.90;;;;;;5034964;28;20226;-81
2022/08/17 08:12:37;;;;;;;4.05;3.75;;;24.80;99.90;;;;;;5025206;28;20606;-82
2022/08/17 08:15:12;;;;;;;4.90;4.40;;;25.00;99.90;;;;;;5027360;28;20215;-83
2022/08/17 08:17:48;;;;;;;4.70;4.28;;;25.30;99.90;;;;;;5027573;28;20836;-78
2022/08/17 08:20:15;;;;;;;4.47;4.18;;;25.60;99.90;;;;;;5027111;28;20198;-83
2022/08/17 08:22:56;;;;;;;4.93;4.38;;;25.60;99.90;;;;;;5025895;28;20234;-81
2022/08/17 08:25:32;;;;;;;5.85;4.68;;;25.30;99.90;;;;;;5026675;28;20254;-78
2022/08/17 08:28:18;;;;;;;4.22;3.92;;;25.40;99.90;;;;;;5025888;28;20275;-77
2022/08/17 08:30:51;;;;;;;6.20;5.22;;;25.40;99.90;;;;;;5027431;28;20751;-80
2022/08/17 08:33:29;;;;;;;4.47;4.07;;;25.50;99.90;;;;;;5029038;28;20227;-78
2022/08/17 08:36:03;;;;;;;5.07;4.57;;;25.90;99.90;;;;;;5028905;28;20206;-77
2022/08/17 08:38:39;;;;;;;5.30;4.28;;;26.00;99.90;;;;;;5027091;28;20223;-77
2022/08/17 08:41:26;;;;;;;5.32;4.82;;;26.20;99.90;;;;;;5023095;28;20450;-82
2022/08/17 08:44:05;;;;;;;4.75;4.35;;;26.00;99.90;;;;;;5048758;28;20249;-83
2022/08/17 08:46:43;;;;;;;4.78;3.85;;;25.90;99.90;;;;;;5045285;28;20313;-84
2022/08/17 08:49:37;;;;;;;4.55;4.18;;;26.20;99.90;;;;;;5039016;28;20321;-81
2022/08/17 08:52:12;;;;;;;3.95;3.65;;;26.50;99.90;;;;;;5040221;28;20285;-79
2022/08/17 08:54:47;;;;;;;4.10;3.80;;;26.80;99.90;;;;;;5044056;28;20214;-78
2022/08/17 08:57:20;;;;;;;3.60;3.30;;;27.20;99.90;;;;;;5038210;28;20218;-78
2022/08/17 08:59:59;;;;;;;5.10;4.60;;;27.20;99.90;;;;;;5023105;28;20192;-81
2022/08/17 09:03:01;;;;;;;5.55;4.18;;;27.00;99.90;;;;;;5023224;28;20211;-78
2022/08/17 09:05:52;;;;;;;4.32;3.95;;;27.20;99.90;;;;;;5012400;28;20191;-79
2022/08/17 09:08:28;;;;;;;4.40;4.10;;;27.30;99.90;;;;;;5022374;28;20310;-79
2022/08/17 09:11:03;;;;;;;5.10;4.60;;;27.50;99.90;;;;;;5025897;28;20713;-76
2022/08/17 09:13:45;;;;;;;4.90;4.40;;;27.70;99.90;;;;;;5022788;28;20320;-76
2022/08/17 09:16:19;;;;;;;4.28;3.97;;;27.70;99.90;;;;;;5017041;28;20709;-77
2022/08/17 09:18:50;;;;;;;4.57;4.18;;;27.80;99.90;;;;;;5037007;28;20229;-79
2022/08/17 09:21:23;;;;;;;4.35;3.95;;;27.80;99.90;;;;;;5038616;28;20790;-77
2022/08/17 09:24:03;;;;;;;4.85;4.35;;;27.90;99.90;;;;;;5024089;28;20212;-78
2022/08/17 09:26:34;;;;;;;4.28;3.80;;;27.90;99.90;;;;;;5020348;28;20223;-77
2022/08/17 09:29:07;;;;;;;4.53;3.95;;;28.00;99.90;;;;;;5022834;28;20622;-82
2022/08/17 09:31:41;;;;;;;5.03;4.57;;;28.30;99.90;;;;;;5022163;28;20879;-80
2022/08/17 09:34:13;;;;;;;4.50;4.20;;;28.60;99.90;;;;;;5028619;28;20219;-82
2022/08/17 09:36:47;;;;;;;4.28;3.88;;;28.80;99.90;;;;;;5024900;28;20294;-75
2022/08/17 09:39:19;;;;;;;4.50;3.67;;;29.00;99.90;;;;;;5020631;28;20193;-79
2022/08/17 09:41:52;;;;;;;5.72;3.90;;;29.00;99.90;;;;;;5019269;28;20230;-77
2022/08/17 09:44:30;;;;;;;3.88;3.58;;;28.80;99.90;;;;;;5022713;28;20226;-77
2022/08/17 09:47:05;;;;;;;4.85;3.95;;;28.90;99.90;;;;;;5024190;28;20495;-77
2022/08/17 09:49:37;;;;;;;4.18;3.78;;;28.90;99.90;;;;;;5023852;28;20218;-79
2022/08/17 09:52:11;;;;;;;5.32;3.33;;;29.00;99.90;;;;;;5021156;28;20290;-83
2022/08/17 09:54:40;;;;;;;4.25;3.55;;;29.20;99.90;;;;;;5020657;28;20749;-83
2022/08/17 09:57:17;;;;;;;4.38;3.85;;;29.20;99.90;;;;;;5021963;28;20224;-82
2022/08/17 10:00:01;;;;;;;5.97;3.58;;;29.30;99.90;;;;;;5019897;28;20200;-82
2022/08/17 10:02:50;;;;;;;4.32;3.75;;;29.30;99.90;;;;;;5021209;28;20221;-77
2022/08/17 10:05:22;;;;;;;4.10;3.70;;;29.20;99.90;;;;;;5020554;28;20900;-84
2022/08/17 10:07:57;;;;;;;3.75;3.45;;;29.00;99.90;;;;;;5019973;28;20219;-80
2022/08/17 10:10:29;;;;;;;3.58;3.30;;;28.90;99.90;;;;;;5015947;28;20787;-83
2022/08/17 10:13:05;;;;;;;3.28;3.00;;;28.70;99.90;;;;;;5017976;28;20228;-83
2022/08/17 10:15:45;;;;;;;4.57;3.53;;;28.50;99.90;;;;;;5017701;28;20198;-82
2022/08/17 10:18:25;;;;;;;3.38;3.08;;;28.20;99.90;;;;;;5036759;28;20309;-79
2022/08/17 10:26:35;;;;;;;3.40;3.10;;;28.10;99.90;;;;;;5035892;28;20217;-81
2022/08/17 10:29:17;;;;;;;4.50;3.30;;;28.30;99.90;;;;;;5043882;28;20211;-82
2022/08/17 10:31:50;;;;;;;3.90;3.20;;;28.40;99.90;;;;;;5032037;28;20211;-79
2022/08/17 10:34:53;;;;;;;3.83;3.53;;;28.50;99.90;;;;;;5039631;28;20731;-82
2022/08/17 10:37:46;;;;;;;3.45;2.95;;;28.50;99.90;;;;;;5038643;28;20218;-83
2022/08/17 10:40:24;;;;;;;3.70;3.40;;;28.40;99.90;;;;;;5038329;28;20195;-79
2022/08/17 10:42:57;;;;;;;3.65;3.45;;;28.40;99.90;;;;;;5038375;28;20227;-81
2022/08/17 10:45:29;;;;;;;4.63;3.92;;;28.40;99.90;;;;;;5034411;28;20578;-81
2022/08/17 10:48:02;;;;;;;4.05;3.65;;;28.20;99.90;;;;;;5033809;28;20229;-80
2022/08/17 10:50:57;;;;;;;4.03;3.63;;;28.10;99.90;;;;;;5038609;28;20696;-81
2022/08/17 10:53:49;;;;;;;3.30;3.00;;;28.20;99.90;;;;;;5041363;28;20292;-81
2022/08/17 10:56:23;;;;;;;2.85;2.60;;;28.30;99.90;;;;;;5038622;28;20210;-82
2022/08/17 10:58:53;;;;;;;3.15;2.88;;;28.50;99.90;;;;;;5023831;28;20203;-81
2022/08/17 11:01:46;;;;;;;3.47;2.85;;;28.70;99.90;;;;;;5025669;28;20233;-80
2022/08/17 11:04:30;;;;;;;3.78;3.40;;;29.00;99.90;;;;;;5026741;28;20220;-79
2022/08/17 11:07:07;;;;;;;3.83;3.33;;;29.10;99.90;;;;;;5020012;28;20223;-82
2022/08/17 11:09:48;;;;;;;4.00;3.28;;;29.10;99.90;;;;;;5024374;28;20226;-81
2022/08/17 11:12:32;;;;;;;3.58;3.00;;;29.10;99.90;;;;;;5016667;28;20273;-82
2022/08/17 11:15:18;;;;;;;3.50;3.13;;;29.20;99.90;;;;;;5018968;28;20349;-77
2022/08/17 11:18:10;;;;;;;4.00;3.67;;;29.20;99.90;;;;;;5016595;28;20292;-83
2022/08/17 11:21:10;;;;;;;4.28;3.88;;;28.90;99.90;;;;;;4993319;28;20210;-79
2022/08/17 11:24:15;;;;;;;3.95;3.65;;;28.80;99.90;;;;;;5033572;28;20245;-80
2022/08/17 11:26:47;;;;;;;3.75;3.45;;;29.00;99.90;;;;;;5032921;28;20216;-84
2022/08/17 11:29:22;;;;;;;3.50;3.20;;;29.30;99.90;;;;;;5034142;28;20223;-88
2022/08/17 11:32:01;;;;;;;3.65;3.20;;;29.50;99.90;;;;;;5031718;28;20704;-87
2022/08/17 11:34:30;;;;;;;3.72;3.00;;;29.90;99.90;;;;;;5041381;28;20260;-85
2022/08/17 11:37:27;;;;;;;3.70;3.35;;;30.30;99.90;;;;;;5039871;28;20219;-88
2022/08/17 11:40:26;;;;;;;3.50;3.20;;;30.70;99.90;;;;;;5039461;28;20872;-79
2022/08/17 11:43:26;;;;;;;3.83;3.40;;;30.70;99.90;;;;;;5037131;28;20229;-81
2022/08/17 11:46:12;;;;;;;3.72;3.00;;;30.60;99.90;;;;;;5042195;28;20557;-84
2022/08/17 11:52:34;;;;;;;4.50;3.40;;;30.80;99.90;;;;;;5037502;28;20238;-81
2022/08/17 11:55:04;;;;;;;4.68;2.90;;;30.90;99.90;;;;;;5034491;28;20226;-82
2022/08/17 11:57:59;;;;;;;3.30;3.00;;;30.90;99.90;;;;;;5042128;28;20222;-82
2022/08/17 12:00:50;;;;;;;3.95;3.15;;;31.20;99.90;;;;;;5036663;28;20192;-82
2022/08/17 12:03:43;;;;;;;4.28;2.97;;;31.40;99.90;;;;;;5035324;28;20260;-79
2022/08/17 12:06:28;;;;;;;3.55;3.03;;;31.30;99.90;;;;;;5029371;28;20267;-78
2022/08/17 12:08:58;;;;;;;4.82;3.45;;;31.10;99.90;;;;;;5036162;28;20259;-79
2022/08/17 12:11:33;;;;;;;3.63;3.05;;;31.00;99.90;;;;;;5036508;28;20254;-78
2022/08/17 12:14:01;;;;;;;4.40;3.30;;;31.10;99.90;;;;;;5033432;28;20225;-81
2022/08/17 12:16:28;;;;;;;3.95;3.00;;;31.10;99.90;;;;;;5033506;28;20215;-77
2022/08/17 12:18:58;;;;;;;6.45;3.50;;;31.10;99.90;;;;;;5032027;28;20214;-80
2022/08/17 12:21:38;;;;;;;3.28;2.80;;;31.10;99.90;;;;;;5035542;28;20207;-78
2022/08/17 12:24:14;;;;;;;5.90;3.50;;;31.10;99.90;;;;;;5037176;28;20214;-78
2022/08/17 12:26:50;;;;;;;2.97;2.78;;;31.10;99.90;;;;;;5036623;28;20233;-84
2022/08/17 12:29:18;;;;;;;3.55;3.00;;;31.00;99.90;;;;;;5042225;28;20214;-83
2022/08/17 12:31:47;;;;;;;3.08;2.58;;;30.90;99.90;;;;;;5043759;28;20886;-81
2022/08/17 12:34:18;;;;;;;6.80;3.30;;;30.80;99.90;;;;;;5040259;28;20579;-83
2022/08/17 12:36:47;;;;;;;3.88;3.05;;;30.80;99.90;;;;;;5035918;28;20234;-86
2022/08/17 12:39:19;;;;;;;3.92;3.08;;;30.80;99.90;;;;;;5035982;28;20223;-82
2022/08/17 12:41:50;;;;;;;3.03;2.70;;;30.70;99.90;;;;;;5031995;28;20742;-78
2022/08/17 12:44:19;;;;;;;4.68;2.70;;;30.80;99.90;;;;;;5037070;28;20211;-84
2022/08/17 12:46:56;;;;;;;3.67;2.95;;;31.00;99.90;;;;;;5041591;28;20218;-81
2022/08/17 12:49:34;;;;;;;4.85;3.10;;;31.20;99.90;;;;;;5052203;28;20289;-78
2022/08/17 12:52:13;;;;;;;3.60;2.80;;;31.40;99.90;;;;;;5045625;28;20527;-80
2022/08/17 12:54:46;;;;;;;4.85;2.80;;;31.50;99.90;;;;;;5042752;28;20222;-78
2022/08/17 12:57:19;;;;;;;5.40;2.85;;;31.50;99.90;;;;;;5037594;28;20219;-77
2022/08/17 12:59:49;;;;;;;3.55;2.85;;;31.50;99.90;;;;;;5045657;28;20187;-83
2022/08/17 13:02:27;;;;;;;3.78;2.95;;;31.50;99.90;;;;;;5042983;28;20226;-76
2022/08/17 13:04:56;;;;;;;5.25;3.13;;;31.40;99.90;;;;;;5034965;28;20249;-81
2022/08/17 13:07:28;;;;;;;4.35;2.90;;;31.30;99.90;;;;;;5038236;28;20285;-79
2022/08/17 13:09:55;;;;;;;4.60;2.80;;;31.40;99.90;;;;;;5034860;28;20705;-79
2022/08/17 13:12:33;;;;;;;3.78;2.63;;;31.30;99.90;;;;;;5037396;28;20726;-77
2022/08/17 13:15:01;;;;;;;6.53;3.22;;;31.30;99.90;;;;;;5041113;28;20223;-76
2022/08/17 13:17:33;;;;;;;4.18;3.33;;;31.20;99.90;;;;;;5042571;28;20219;-76
2022/08/17 13:20:01;;;;;;;6.35;3.30;;;31.20;99.90;;;;;;5040526;28;20191;-77
2022/08/17 13:22:31;;;;;;;5.72;3.35;;;31.20;99.90;;;;;;5038663;28;20223;-80
2022/08/17 13:25:04;;;;;;;4.30;3.08;;;31.20;99.90;;;;;;5038353;28;20219;-77
2022/08/17 13:27:33;;;;;;;5.53;3.20;;;31.20;99.90;;;;;;5034819;28;20243;-76
2022/08/17 13:30:04;;;;;;;5.68;3.10;;;31.20;99.90;;;;;;5042539;28;20246;-75
2022/08/17 13:32:41;;;;;;;3.58;2.72;;;31.20;99.90;;;;;;5042752;28;20206;-75
2022/08/17 13:35:29;;;;;;;5.60;2.90;;;31.10;99.90;;;;;;5038928;28;20245;-75
2022/08/17 13:38:02;;;;;;;5.47;3.33;;;31.10;99.90;;;;;;5041089;28;20233;-75
2022/08/17 13:40:35;;;;;;;3.45;2.40;;;31.00;99.90;;;;;;5040356;28;20182;-80
2022/08/17 13:43:04;;;;;;;4.18;2.88;;;30.90;99.90;;;;;;5038333;28;20234;-76
2022/08/17 13:45:39;;;;;;;5.90;2.72;;;31.00;99.90;;;;;;5039020;28;21047;-77
2022/08/17 13:48:09;;;;;;;3.53;2.95;;;31.00;99.90;;;;;;5042454;28;20216;-77
2022/08/17 13:50:39;;;;;;;5.10;2.72;;;31.10;99.90;;;;;;5043260;28;20681;-77
2022/08/17 13:53:17;;;;;;;4.65;2.85;;;31.20;99.90;;;;;;5040213;28;20627;-77
2022/08/17 13:55:49;;;;;;;5.57;3.35;;;31.30;99.90;;;;;;5039332;28;20202;-80
2022/08/17 13:58:23;;;;;;;3.33;3.00;;;31.40;99.90;;;;;;5040195;28;20214;-75
2022/08/17 14:00:51;;;;;;;5.15;3.08;;;31.40;99.90;;;;;;5037225;28;20187;-76
2022/08/17 14:03:20;;;;;;;3.92;2.92;;;31.40;99.90;;;;;;5034562;28;20642;-76